createdAt,value
2017-11-29T00:02:17.882Z,76.50
2017-11-29T00:04:45.389Z,76.00
2017-11-29T00:07:12.922Z,76.30
2017-11-29T00:09:40.445Z,76.20
2017-11-29T00:12:07.956Z,76.20
2017-11-29T00:14:35.577Z,76.20
2017-11-29T00:17:03.096Z,76.20
2017-11-29T00:19:31.367Z,76.20
2017-11-29T00:21:58.922Z,76.20
2017-11-29T00:24:27.190Z,75.70
2017-11-29T00:26:55.485Z,75.60
2017-11-29T00:29:22.983Z,75.60
2017-11-29T00:31:50.494Z,75.40
2017-11-29T00:34:18.126Z,76.00
2017-11-29T00:36:45.620Z,76.20
2017-11-29T00:39:13.149Z,76.40
2017-11-29T00:41:40.657Z,76.20
2017-11-29T00:44:08.159Z,76.30
2017-11-29T00:46:36.420Z,76.60
2017-11-29T00:49:03.974Z,76.50
2017-11-29T00:51:31.468Z,76.70
2017-11-29T00:53:59.764Z,76.90
2017-11-29T00:56:27.257Z,76.90
2017-11-29T00:58:54.777Z,77.10
2017-11-29T01:01:22.275Z,76.50
2017-11-29T01:03:49.802Z,76.40
2017-11-29T01:06:17.297Z,76.40
2017-11-29T01:08:44.797Z,76.40
2017-11-29T01:11:12.351Z,76.60
2017-11-29T01:13:39.880Z,76.40
2017-11-29T01:16:07.373Z,76.20
2017-11-29T01:18:34.896Z,76.10
2017-11-29T01:21:03.164Z,76.10
2017-11-29T01:23:30.668Z,76.00
2017-11-29T01:25:58.196Z,76.60
2017-11-29T01:28:26.464Z,75.80
2017-11-29T01:30:54.114Z,75.80
2017-11-29T01:33:21.618Z,75.50
2017-11-29T01:35:49.108Z,76.20
2017-11-29T01:38:16.628Z,75.30
2017-11-29T01:40:44.127Z,75.20
2017-11-29T01:43:11.651Z,75.10
2017-11-29T01:45:39.158Z,75.20
2017-11-29T01:48:06.649Z,75.10
2017-11-29T01:50:34.256Z,74.90
2017-11-29T01:53:01.761Z,75.00
2017-11-29T01:55:29.296Z,75.40
2017-11-29T01:57:57.579Z,75.70
2017-11-29T02:00:25.845Z,75.70
2017-11-29T02:02:54.141Z,75.90
2017-11-29T02:05:21.657Z,75.90
2017-11-29T02:07:49.156Z,75.90
2017-11-29T02:10:16.680Z,76.30
2017-11-29T02:12:44.218Z,76.30
2017-11-29T02:15:11.750Z,76.20
2017-11-29T02:17:39.251Z,76.10
2017-11-29T02:20:06.780Z,75.80
2017-11-29T02:22:34.290Z,75.20
2017-11-29T02:25:01.822Z,75.60
2017-11-29T02:27:30.102Z,75.80
2017-11-29T02:29:58.377Z,75.80
2017-11-29T02:32:25.903Z,75.80
2017-11-29T02:34:54.221Z,75.30
2017-11-29T02:37:22.531Z,74.80
2017-11-29T02:40:01.978Z,74.80
2017-11-29T02:42:38.314Z,74.60
2017-11-29T02:45:05.850Z,74.80
2017-11-29T02:47:34.114Z,74.50
2017-11-29T02:50:02.407Z,74.40
2017-11-29T02:52:30.673Z,74.40
2017-11-29T02:54:58.220Z,74.40
2017-11-29T02:57:25.717Z,74.40
2017-11-29T02:59:53.225Z,74.90
2017-11-29T03:02:20.750Z,74.50
2017-11-29T03:04:48.263Z,74.80
2017-11-29T03:07:16.560Z,75.40
2017-11-29T03:09:44.056Z,75.40
2017-11-29T03:12:11.555Z,75.00
2017-11-29T03:14:39.850Z,75.00
2017-11-29T03:17:07.357Z,75.00
2017-11-29T03:19:34.897Z,75.20
2017-11-29T03:22:02.397Z,74.80
2017-11-29T03:24:30.660Z,76.10
2017-11-29T03:26:58.178Z,76.10
2017-11-29T03:29:25.685Z,76.20
2017-11-29T03:31:53.958Z,75.90
2017-11-29T03:34:22.251Z,76.30
2017-11-29T03:36:49.769Z,76.20
2017-11-29T03:39:17.296Z,76.20
2017-11-29T03:41:44.802Z,76.10
2017-11-29T03:44:13.101Z,75.50
2017-11-29T03:46:40.598Z,75.50
2017-11-29T03:49:08.146Z,75.40
2017-11-29T03:51:35.670Z,75.30
2017-11-29T03:54:03.182Z,75.30
2017-11-29T03:56:30.706Z,75.50
2017-11-29T03:58:58.196Z,75.40
2017-11-29T04:01:25.741Z,75.30
2017-11-29T04:03:53.265Z,75.40
2017-11-29T04:06:20.804Z,75.30
2017-11-29T04:08:49.129Z,75.30
2017-11-29T04:11:16.625Z,75.30
2017-11-29T04:13:44.908Z,75.00
2017-11-29T04:16:12.406Z,75.00
2017-11-29T04:18:39.933Z,74.80
2017-11-29T04:21:07.438Z,75.40
2017-11-29T04:23:34.937Z,75.10
2017-11-29T04:26:02.475Z,75.00
2017-11-29T04:28:30.758Z,74.90
2017-11-29T04:30:59.062Z,75.10
2017-11-29T04:33:26.590Z,75.10
2017-11-29T04:35:54.866Z,75.20
2017-11-29T04:38:23.164Z,75.20
2017-11-29T04:40:51.081Z,75.20
2017-11-29T04:43:18.586Z,75.00
2017-11-29T04:45:46.104Z,75.00
2017-11-29T04:48:13.615Z,74.90
2017-11-29T04:50:41.144Z,75.00
2017-11-29T04:53:08.644Z,74.90
2017-11-29T04:55:36.159Z,74.80
2017-11-29T04:58:04.435Z,74.70
2017-11-29T05:00:32.741Z,74.60
2017-11-29T05:03:00.248Z,74.70
2017-11-29T05:05:28.572Z,75.20
2017-11-29T05:07:56.067Z,74.80
2017-11-29T05:10:23.587Z,75.10
2017-11-29T05:12:51.086Z,75.00
2017-11-29T05:15:18.680Z,75.20
2017-11-29T05:17:46.197Z,75.30
2017-11-29T05:20:13.690Z,75.00
2017-11-29T05:22:41.221Z,75.00
2017-11-29T05:25:08.801Z,74.80
2017-11-29T05:27:36.304Z,74.90
2017-11-29T05:30:03.797Z,74.60
2017-11-29T05:32:32.093Z,73.80
2017-11-29T05:34:59.609Z,73.80
2017-11-29T05:37:27.138Z,74.00
2017-11-29T05:39:55.204Z,74.00
2017-11-29T05:42:22.729Z,73.70
2017-11-29T05:44:50.994Z,73.30
2017-11-29T05:47:19.296Z,73.30
2017-11-29T05:49:46.816Z,73.30
2017-11-29T05:52:16.557Z,73.90
2017-11-29T05:54:45.384Z,73.20
2017-11-29T05:57:18.146Z,73.10
2017-11-29T06:00:01.877Z,72.90
2017-11-29T06:02:36.170Z,72.80
2017-11-29T06:05:06.848Z,73.60
2017-11-29T06:07:35.199Z,73.40
2017-11-29T06:10:02.694Z,73.40
2017-11-29T06:12:30.227Z,72.90
2017-11-29T06:14:57.762Z,73.00
2017-11-29T06:17:25.256Z,72.90
2017-11-29T06:19:52.753Z,72.70
2017-11-29T06:22:21.049Z,72.20
2017-11-29T06:24:48.583Z,72.20
2017-11-29T06:27:16.880Z,72.50
2017-11-29T06:29:44.381Z,72.50
2017-11-29T06:32:11.936Z,72.50
2017-11-29T06:34:39.466Z,72.30
2017-11-29T06:37:06.958Z,72.30
2017-11-29T06:39:34.481Z,72.20
2017-11-29T06:42:01.973Z,72.20
2017-11-29T06:44:29.504Z,72.00
2017-11-29T06:46:57.009Z,72.10
2017-11-29T06:49:26.853Z,72.60
2017-11-29T06:51:54.490Z,71.90
2017-11-29T06:54:22.781Z,71.80
2017-11-29T06:56:50.311Z,71.80
2017-11-29T06:59:18.570Z,71.70
2017-11-29T07:01:46.062Z,71.70
2017-11-29T07:04:13.598Z,71.60
2017-11-29T07:06:41.887Z,72.00
2017-11-29T07:09:10.183Z,71.80
2017-11-29T07:11:37.699Z,71.90
2017-11-29T07:14:05.963Z,72.00
2017-11-29T07:16:33.489Z,71.90
2017-11-29T07:19:01.648Z,71.70
2017-11-29T07:21:29.177Z,71.60
2017-11-29T07:23:57.380Z,71.90
2017-11-29T07:26:24.869Z,71.60
2017-11-29T07:28:52.357Z,71.60
2017-11-29T07:31:19.895Z,72.10
2017-11-29T07:33:47.502Z,72.50
2017-11-29T07:36:14.998Z,72.30
2017-11-29T07:38:42.485Z,72.20
2017-11-29T07:41:10.791Z,72.70
2017-11-29T07:43:38.301Z,72.70
2017-11-29T07:46:05.797Z,73.00
2017-11-29T07:48:33.301Z,73.10
2017-11-29T07:51:00.793Z,73.40
2017-11-29T07:53:28.291Z,73.40
2017-11-29T07:55:55.903Z,73.10
2017-11-29T07:58:24.164Z,72.40
2017-11-29T08:00:51.652Z,72.40
2017-11-29T08:03:19.280Z,72.70
2017-11-29T08:05:47.590Z,72.70
2017-11-29T08:08:15.095Z,72.70
2017-11-29T08:10:42.727Z,72.90
2017-11-29T08:13:10.231Z,73.20
2017-11-29T08:15:37.735Z,72.90
2017-11-29T08:18:05.307Z,73.30
2017-11-29T08:20:32.839Z,73.40
2017-11-29T08:23:00.346Z,73.60
2017-11-29T08:25:27.862Z,73.70
2017-11-29T08:27:55.369Z,74.20
2017-11-29T08:30:22.860Z,74.10
2017-11-29T08:32:57.058Z,74.50
2017-11-29T08:35:25.328Z,74.70
2017-11-29T08:37:53.602Z,74.80
2017-11-29T08:40:21.872Z,75.10
2017-11-29T08:42:49.366Z,75.10
2017-11-29T08:45:16.859Z,74.90
2017-11-29T08:47:44.376Z,74.80
2017-11-29T08:50:11.881Z,75.00
2017-11-29T08:52:39.389Z,75.50
2017-11-29T08:55:06.914Z,75.80
2017-11-29T08:57:35.190Z,75.30
2017-11-29T09:00:03.459Z,75.00
2017-11-29T09:02:31.742Z,73.40
2017-11-29T09:05:00.004Z,72.50
2017-11-29T09:07:27.491Z,72.40
2017-11-29T09:09:55.021Z,71.70
2017-11-29T09:12:22.506Z,71.80
2017-11-29T09:14:50.007Z,71.20
2017-11-29T09:17:17.529Z,69.70
2017-11-29T09:19:45.027Z,69.40
2017-11-29T09:22:12.528Z,71.30
2017-11-29T09:24:40.136Z,71.80
2017-11-29T09:27:07.681Z,71.70
2017-11-29T09:29:35.951Z,68.00
2017-11-29T09:32:03.472Z,67.90
2017-11-29T09:34:30.979Z,70.10
2017-11-29T09:36:58.473Z,70.30
2017-11-29T09:39:26.861Z,70.10
2017-11-29T09:41:55.126Z,70.40
2017-11-29T09:44:23.394Z,71.80
2017-11-29T09:46:51.678Z,72.00
2017-11-29T09:49:19.937Z,71.90
2017-11-29T09:51:47.455Z,71.90
2017-11-29T09:54:14.980Z,72.80
2017-11-29T09:56:42.763Z,71.60
2017-11-29T09:59:10.273Z,72.40
2017-11-29T10:01:37.777Z,72.40
2017-11-29T10:04:05.300Z,71.20
2017-11-29T10:06:33.573Z,70.70
2017-11-29T10:09:01.828Z,71.60
2017-11-29T10:11:29.365Z,71.60
2017-11-29T10:13:56.873Z,71.90
2017-11-29T10:16:24.367Z,71.20
2017-11-29T10:18:51.982Z,71.50
2017-11-29T10:21:20.248Z,72.10
2017-11-29T10:23:48.513Z,72.80
2017-11-29T10:26:16.049Z,72.80
2017-11-29T10:28:43.576Z,72.40
2017-11-29T10:31:11.062Z,72.70
2017-11-29T10:33:38.583Z,72.80
2017-11-29T10:36:06.085Z,72.90
2017-11-29T10:38:33.584Z,73.10
2017-11-29T10:41:01.119Z,73.10
2017-11-29T10:43:29.376Z,73.60
2017-11-29T10:45:56.901Z,73.10
2017-11-29T10:48:26.600Z,73.20
2017-11-29T10:50:57.700Z,72.90
2017-11-29T10:53:30.055Z,73.20
2017-11-29T10:56:02.889Z,72.90
2017-11-29T10:58:30.680Z,72.90
2017-11-29T11:00:58.175Z,73.20
2017-11-29T11:03:26.452Z,73.30
2017-11-29T11:05:54.759Z,73.20
2017-11-29T11:08:22.262Z,73.20
2017-11-29T11:10:49.923Z,73.30
2017-11-29T11:13:17.416Z,73.00
2017-11-29T11:15:44.952Z,73.20
2017-11-29T11:18:12.455Z,73.00
2017-11-29T11:20:39.994Z,73.40
2017-11-29T11:23:07.499Z,73.40
2017-11-29T11:25:35.070Z,73.10
2017-11-29T11:28:02.581Z,71.50
2017-11-29T11:30:30.114Z,72.40
2017-11-29T11:32:57.640Z,73.00
2017-11-29T11:35:25.174Z,73.80
2017-11-29T11:37:52.700Z,73.70
2017-11-29T11:40:20.201Z,72.70
2017-11-29T11:42:47.717Z,73.00
2017-11-29T11:45:15.212Z,72.80
2017-11-29T11:47:42.764Z,73.60
2017-11-29T11:50:10.305Z,74.00
2017-11-29T11:52:37.815Z,74.20
2017-11-29T11:55:06.111Z,73.50
2017-11-29T11:57:33.653Z,73.50
2017-11-29T12:00:01.946Z,72.90
2017-11-29T12:02:29.454Z,72.80
2017-11-29T12:04:56.981Z,72.10
2017-11-29T12:07:24.490Z,72.00
2017-11-29T12:09:52.789Z,71.80
2017-11-29T12:12:20.305Z,71.90
2017-11-29T12:14:47.836Z,71.90
2017-11-29T12:17:15.363Z,70.70
2017-11-29T12:19:42.910Z,71.50
2017-11-29T12:22:10.412Z,71.80
2017-11-29T12:24:37.909Z,72.50
2017-11-29T12:27:06.241Z,73.00
2017-11-29T12:29:33.783Z,73.00
2017-11-29T12:32:01.303Z,72.30
2017-11-29T12:34:28.808Z,72.50
2017-11-29T12:36:57.170Z,72.30
2017-11-29T12:39:24.666Z,72.30
2017-11-29T12:41:52.204Z,73.00
2017-11-29T12:44:19.720Z,73.30
2017-11-29T12:46:47.261Z,73.40
2017-11-29T12:49:27.491Z,73.60
2017-11-29T12:51:55.030Z,73.60
2017-11-29T12:54:22.542Z,73.60
2017-11-29T12:56:50.856Z,73.80
2017-11-29T12:59:18.488Z,73.90
2017-11-29T13:01:45.992Z,74.10
2017-11-29T13:04:13.528Z,74.30
2017-11-29T13:06:41.250Z,74.00
2017-11-29T13:09:09.984Z,74.30
2017-11-29T13:11:37.484Z,74.30
2017-11-29T13:14:05.768Z,73.90
2017-11-29T13:16:34.050Z,74.10
2017-11-29T13:19:01.569Z,74.10
2017-11-29T13:21:29.073Z,74.00
2017-11-29T13:23:56.568Z,74.50
2017-11-29T13:26:24.182Z,73.80
2017-11-29T13:28:51.687Z,74.10
2017-11-29T13:31:19.198Z,74.30
2017-11-29T13:33:46.713Z,72.20
2017-11-29T13:36:14.211Z,70.60
2017-11-29T13:38:41.733Z,68.10
2017-11-29T13:41:09.252Z,68.70
2017-11-29T13:43:36.761Z,68.60
2017-11-29T13:46:05.074Z,69.90
2017-11-29T13:48:32.781Z,70.00
2017-11-29T13:51:00.272Z,70.50
2017-11-29T13:53:27.768Z,70.50
2017-11-29T13:55:55.421Z,69.90
2017-11-29T13:58:23.304Z,70.60
2017-11-29T14:00:50.812Z,71.10
2017-11-29T14:03:18.354Z,71.40
2017-11-29T14:05:46.621Z,70.50
2017-11-29T14:08:14.925Z,70.20
2017-11-29T14:10:43.206Z,70.40
2017-11-29T14:13:10.702Z,70.40
2017-11-29T14:15:38.228Z,70.80
2017-11-29T14:18:05.823Z,69.70
2017-11-29T14:20:34.281Z,69.80
2017-11-29T14:23:02.637Z,69.70
2017-11-29T14:25:30.141Z,69.80
2017-11-29T14:27:57.669Z,69.90
2017-11-29T14:30:25.222Z,70.50
2017-11-29T14:32:52.717Z,71.00
2017-11-29T14:35:20.250Z,71.00
2017-11-29T14:37:47.826Z,71.00
2017-11-29T14:40:15.311Z,70.60
2017-11-29T14:42:42.847Z,70.30
2017-11-29T14:45:10.367Z,70.80
2017-11-29T14:47:37.947Z,71.00
2017-11-29T14:50:08.419Z,71.10
2017-11-29T14:52:36.700Z,71.80
2017-11-29T14:55:06.919Z,71.60
2017-11-29T14:57:35.182Z,71.90
2017-11-29T15:00:03.532Z,71.70
2017-11-29T15:02:31.052Z,71.70
2017-11-29T15:04:58.720Z,71.90
2017-11-29T15:07:26.243Z,71.70
2017-11-29T15:09:54.519Z,72.20
2017-11-29T15:12:22.816Z,72.30
2017-11-29T15:14:50.320Z,72.20
2017-11-29T15:17:17.844Z,72.40
2017-11-29T15:19:45.380Z,72.60
2017-11-29T15:22:12.900Z,72.70
2017-11-29T15:24:41.241Z,73.20
2017-11-29T15:27:08.732Z,72.90
2017-11-29T15:29:37.054Z,73.10
2017-11-29T15:32:04.556Z,73.00
2017-11-29T15:34:32.111Z,73.00
2017-11-29T15:36:59.635Z,73.10
2017-11-29T15:39:27.132Z,73.10
2017-11-29T15:41:54.629Z,72.90
2017-11-29T15:44:22.137Z,73.10
2017-11-29T15:46:49.637Z,73.20
2017-11-29T15:49:17.141Z,73.20
2017-11-29T15:51:44.715Z,73.20
2017-11-29T15:54:12.214Z,73.10
2017-11-29T15:56:40.554Z,73.40
2017-11-29T15:59:08.259Z,73.30
2017-11-29T16:01:35.781Z,73.50
2017-11-29T16:04:03.277Z,73.30
2017-11-29T16:06:30.795Z,73.40
2017-11-29T16:08:59.067Z,73.70
2017-11-29T16:11:27.352Z,73.90
2017-11-29T16:13:55.643Z,73.50
2017-11-29T16:16:23.156Z,73.50
2017-11-29T16:18:50.656Z,73.50
2017-11-29T16:21:18.961Z,73.30
2017-11-29T16:23:46.457Z,73.30
2017-11-29T16:26:13.969Z,73.30
2017-11-29T16:28:50.461Z,73.50
2017-11-29T16:31:18.061Z,73.30
2017-11-29T16:33:45.576Z,73.20
2017-11-29T16:36:13.117Z,73.10
2017-11-29T16:38:40.633Z,73.10
2017-11-29T16:41:08.147Z,73.20
2017-11-29T16:43:35.765Z,72.90
2017-11-29T16:46:03.313Z,72.90
2017-11-29T16:48:31.574Z,72.90
2017-11-29T16:50:59.957Z,72.80
2017-11-29T16:53:28.224Z,72.90
2017-11-29T16:55:56.494Z,73.10
2017-11-29T16:58:24.024Z,73.10
2017-11-29T17:00:51.517Z,73.10
2017-11-29T17:03:19.812Z,73.20
2017-11-29T17:05:47.311Z,73.30
2017-11-29T17:08:14.856Z,73.30
2017-11-29T17:10:42.386Z,73.30
2017-11-29T17:13:09.891Z,73.20
2017-11-29T17:15:37.424Z,73.00
2017-11-29T17:18:04.917Z,73.20
2017-11-29T17:20:33.215Z,73.10
2017-11-29T17:23:01.481Z,73.00
2017-11-29T17:25:29.764Z,73.00
2017-11-29T17:27:58.061Z,73.00
2017-11-29T17:30:29.509Z,73.00
2017-11-29T17:32:57.042Z,73.00
2017-11-29T17:35:24.543Z,72.70
2017-11-29T17:37:52.082Z,72.80
2017-11-29T17:40:19.592Z,73.00
2017-11-29T17:42:47.137Z,73.20
2017-11-29T17:45:14.636Z,73.40
2017-11-29T17:47:42.920Z,73.10
2017-11-29T17:50:10.420Z,73.00
2017-11-29T17:52:37.981Z,72.90
2017-11-29T17:55:05.521Z,72.90
2017-11-29T17:57:33.140Z,72.90
2017-11-29T18:00:01.408Z,73.00
2017-11-29T18:02:29.702Z,73.10
2017-11-29T18:04:57.229Z,73.10
2017-11-29T18:07:25.559Z,73.20
2017-11-29T18:09:53.081Z,73.20
2017-11-29T18:12:21.349Z,73.10
2017-11-29T18:14:49.659Z,73.20
2017-11-29T18:17:17.156Z,73.20
2017-11-29T18:19:44.687Z,73.20
2017-11-29T18:22:12.186Z,73.30
2017-11-29T18:24:39.749Z,73.70
2017-11-29T18:27:08.020Z,73.30
2017-11-29T18:29:35.560Z,73.30
2017-11-29T18:32:03.120Z,73.40
2017-11-29T18:34:30.651Z,73.60
2017-11-29T18:36:58.192Z,73.70
2017-11-29T18:39:25.692Z,73.90
2017-11-29T18:41:53.242Z,73.90
2017-11-29T18:44:20.749Z,74.10
2017-11-29T18:46:49.023Z,73.90
2017-11-29T18:49:16.625Z,73.90
2017-11-29T18:51:44.135Z,73.60
2017-11-29T18:54:11.678Z,73.50
2017-11-29T18:56:39.213Z,73.20
2017-11-29T18:59:06.739Z,73.50
2017-11-29T19:01:34.243Z,73.20
2017-11-29T19:04:02.542Z,73.00
2017-11-29T19:06:30.097Z,73.00
2017-11-29T19:08:57.594Z,72.90
2017-11-29T19:11:25.112Z,73.10
2017-11-29T19:13:52.702Z,72.90
2017-11-29T19:16:20.316Z,72.60
2017-11-29T19:18:48.616Z,72.70
2017-11-29T19:21:16.121Z,72.70
2017-11-29T19:23:43.620Z,72.50
2017-11-29T19:26:11.153Z,72.30
2017-11-29T19:28:39.420Z,72.50
2017-11-29T19:31:07.016Z,72.40
2017-11-29T19:33:34.653Z,72.10
2017-11-29T19:36:02.957Z,72.00
2017-11-29T19:41:23.741Z,72.00
2017-11-29T19:43:52.018Z,72.10
2017-11-29T19:46:20.355Z,71.80
2017-11-29T19:48:47.906Z,71.80
2017-11-29T19:51:15.429Z,71.70
2017-11-29T19:53:42.958Z,71.60
2017-11-29T19:56:11.274Z,71.80
2017-11-29T19:58:38.783Z,71.70
2017-11-29T20:01:06.342Z,71.70
2017-11-29T20:03:33.878Z,72.10
2017-11-29T20:06:01.378Z,72.40
2017-11-29T20:08:28.912Z,72.30
2017-11-29T20:10:57.251Z,72.30
2017-11-29T20:13:24.762Z,72.40
2017-11-29T20:15:52.346Z,72.10
2017-11-29T20:18:19.846Z,72.20
2017-11-29T20:20:47.369Z,72.20
2017-11-29T20:23:14.918Z,72.30
2017-11-29T20:25:42.538Z,72.20
2017-11-29T20:28:10.084Z,72.30
2017-11-29T20:30:37.633Z,72.30
2017-11-29T20:33:05.154Z,72.30
2017-11-29T20:35:32.683Z,72.50
2017-11-29T20:38:00.971Z,72.30
2017-11-29T20:40:28.506Z,72.30
2017-11-29T20:42:56.778Z,72.50
2017-11-29T20:45:24.318Z,72.50
2017-11-29T20:47:51.820Z,71.90
2017-11-29T20:50:19.359Z,71.80
2017-11-29T20:52:55.419Z,71.80
2017-11-29T20:55:23.729Z,71.90
2017-11-29T20:57:51.239Z,71.90
2017-11-29T21:00:18.785Z,72.00
2017-11-29T21:02:46.305Z,72.00
2017-11-29T21:05:13.808Z,72.30
2017-11-29T21:07:41.345Z,72.10
2017-11-29T21:10:08.860Z,72.00
2017-11-29T21:12:36.398Z,71.80
2017-11-29T21:15:03.905Z,71.90
2017-11-29T21:17:34.383Z,71.70
2017-11-29T21:20:02.714Z,71.40
2017-11-29T21:22:30.239Z,71.40
2017-11-29T21:24:57.742Z,71.20
2017-11-29T21:27:25.314Z,71.40
2017-11-29T21:29:52.816Z,71.20
2017-11-29T21:32:20.334Z,71.10
2017-11-29T21:34:48.630Z,71.20
2017-11-29T21:37:16.170Z,71.20
2017-11-29T21:39:44.469Z,71.00
2017-11-29T21:42:12.011Z,71.00
2017-11-29T21:44:40.301Z,70.90
2017-11-29T21:47:07.824Z,70.80
2017-11-29T21:49:35.322Z,70.60
2017-11-29T21:52:02.870Z,70.80
2017-11-29T21:54:30.403Z,70.70
2017-11-29T21:56:58.730Z,70.80
2017-11-29T21:59:26.238Z,70.80
2017-11-29T22:01:54.541Z,70.50
2017-11-29T22:04:22.050Z,70.50
2017-11-29T22:06:49.586Z,70.40
2017-11-29T22:09:17.121Z,70.10
2017-11-29T22:11:44.661Z,70.10
2017-11-29T22:14:12.183Z,70.30
2017-11-29T22:16:39.687Z,70.00
2017-11-29T22:19:07.223Z,70.30
2017-11-29T22:21:35.494Z,70.40
2017-11-29T22:24:03.801Z,70.40
2017-11-29T22:26:31.310Z,70.30
2017-11-29T22:28:58.851Z,70.20
2017-11-29T22:31:26.385Z,70.20
2017-11-29T22:33:53.895Z,70.30
2017-11-29T22:36:22.200Z,70.60
2017-11-29T22:38:49.709Z,70.60
2017-11-29T22:41:17.250Z,70.90
2017-11-29T22:43:44.790Z,70.90
2017-11-29T22:46:12.298Z,71.20
2017-11-29T22:48:40.571Z,71.30
2017-11-29T22:51:08.878Z,71.20
2017-11-29T22:53:36.387Z,71.20
2017-11-29T22:56:04.725Z,71.40
2017-11-29T22:58:32.243Z,71.40
2017-11-29T23:01:02.350Z,71.80
2017-11-29T23:03:30.666Z,71.80
2017-11-29T23:05:58.208Z,71.80
2017-11-29T23:08:25.757Z,71.70
2017-11-29T23:10:54.026Z,71.80
2017-11-29T23:13:22.327Z,71.80
2017-11-29T23:15:49.841Z,71.70
2017-11-29T23:18:17.390Z,71.50
2017-11-29T23:20:44.889Z,72.20
2017-11-29T23:23:12.415Z,71.80
2017-11-29T23:25:39.957Z,71.80
2017-11-29T23:28:07.498Z,72.40
2017-11-29T23:30:35.079Z,71.60
2017-11-29T23:33:02.612Z,71.80
2017-11-29T23:35:30.120Z,72.30
2017-11-29T23:37:58.429Z,71.60
2017-11-29T23:40:25.950Z,71.60
2017-11-29T23:42:54.250Z,72.00
2017-11-29T23:45:21.760Z,71.90
2017-11-29T23:47:49.286Z,71.70
2017-11-29T23:50:16.832Z,71.50
2017-11-29T23:52:44.368Z,70.70
2017-11-29T23:55:11.882Z,70.40
2017-11-29T23:57:39.394Z,70.10
